createdAt,value
2018-09-26T00:00:39.853Z,80.97
2018-09-26T00:01:50.587Z,80.68
2018-09-26T00:02:57.896Z,80.43
2018-09-26T00:04:04.676Z,80.25
2018-09-26T00:05:07.389Z,80.40
2018-09-26T00:06:12.347Z,80.39
2018-09-26T00:07:15.093Z,80.03
2018-09-26T00:08:19.359Z,80.06
2018-09-26T00:09:24.662Z,80.35
2018-09-26T00:10:27.743Z,80.05
2018-09-26T00:11:30.464Z,80.09
2018-09-26T00:12:33.202Z,80.04
2018-09-26T00:13:35.939Z,79.91
2018-09-26T00:14:40.430Z,80.34
2018-09-26T00:15:43.202Z,80.09
2018-09-26T00:16:45.922Z,80.92
2018-09-26T00:17:48.617Z,80.91
2018-09-26T00:18:51.375Z,81.32
2018-09-26T00:19:54.223Z,81.43
2018-09-26T00:20:58.449Z,82.02
2018-09-26T00:22:01.528Z,81.74
2018-09-26T00:23:04.235Z,81.82
2018-09-26T00:24:07.055Z,81.65
2018-09-26T00:25:09.773Z,81.41
2018-09-26T00:26:12.511Z,82.03
2018-09-26T00:27:15.882Z,82.05
2018-09-26T00:28:18.603Z,82.15
2018-09-26T00:29:21.321Z,82.49
2018-09-26T00:30:24.027Z,82.62
2018-09-26T00:31:26.822Z,82.41
2018-09-26T00:32:29.615Z,82.92
2018-09-26T00:33:32.654Z,82.64
2018-09-26T00:34:35.394Z,82.99
2018-09-26T00:35:38.192Z,83.08
2018-09-26T00:36:40.907Z,82.94
2018-09-26T00:37:43.643Z,83.31
2018-09-26T00:38:46.367Z,83.05
2018-09-26T00:39:49.423Z,83.10
2018-09-26T00:40:52.141Z,83.49
2018-09-26T00:41:54.901Z,83.39
2018-09-26T00:42:57.602Z,83.74
2018-09-26T00:44:00.312Z,84.54
2018-09-26T00:45:03.011Z,84.75
2018-09-26T00:46:06.063Z,84.68
2018-09-26T00:47:08.794Z,84.65
2018-09-26T00:48:11.510Z,84.54
2018-09-26T00:49:14.253Z,84.11
2018-09-26T00:50:16.952Z,84.05
2018-09-26T00:51:19.683Z,84.48
2018-09-26T00:52:22.692Z,84.43
2018-09-26T00:53:25.399Z,84.22
2018-09-26T00:54:28.115Z,84.03
2018-09-26T00:55:31.352Z,84.31
2018-09-26T00:56:35.072Z,83.97
2018-09-26T00:57:37.774Z,84.03
2018-09-26T00:58:40.751Z,84.23
2018-09-26T00:59:43.533Z,83.81
2018-09-26T01:00:46.267Z,84.05
2018-09-26T01:01:48.982Z,83.95
2018-09-26T01:02:51.699Z,84.09
2018-09-26T01:03:54.417Z,83.83
2018-09-26T01:04:57.421Z,84.19
2018-09-26T01:06:00.158Z,84.27
2018-09-26T01:07:02.895Z,84.57
2018-09-26T01:08:05.618Z,84.35
2018-09-26T01:09:08.359Z,84.68
2018-09-26T01:10:11.510Z,84.15
2018-09-26T01:11:14.511Z,84.60
2018-09-26T01:12:17.264Z,84.74
2018-09-26T01:13:20.080Z,84.21
2018-09-26T01:14:22.863Z,84.23
2018-09-26T01:15:25.551Z,84.31
2018-09-26T01:16:28.260Z,84.37
2018-09-26T01:17:31.321Z,84.16
2018-09-26T01:18:34.052Z,84.17
2018-09-26T01:19:36.763Z,84.59
2018-09-26T01:20:39.483Z,84.67
2018-09-26T01:21:42.216Z,84.38
2018-09-26T01:22:44.952Z,84.17
2018-09-26T01:23:47.951Z,84.31
2018-09-26T01:24:50.694Z,84.86
2018-09-26T01:25:53.432Z,84.88
2018-09-26T01:26:56.148Z,85.06
2018-09-26T01:27:58.879Z,84.69
2018-09-26T01:29:01.662Z,85.05
2018-09-26T01:30:06.370Z,85.08
2018-09-26T01:31:09.102Z,84.95
2018-09-26T01:32:11.830Z,84.58
2018-09-26T01:33:14.545Z,84.38
2018-09-26T01:34:17.260Z,84.64
2018-09-26T01:35:19.987Z,84.62
2018-09-26T01:36:23.322Z,84.71
2018-09-26T01:37:26.045Z,84.62
2018-09-26T01:38:28.782Z,84.52
2018-09-26T01:39:31.508Z,84.25
2018-09-26T01:40:34.212Z,83.94
2018-09-26T01:41:36.942Z,84.35
2018-09-26T01:42:39.980Z,84.39
2018-09-26T01:43:42.708Z,84.32
2018-09-26T01:44:45.414Z,84.07
2018-09-26T01:45:48.164Z,83.89
2018-09-26T01:46:50.876Z,83.45
2018-09-26T01:47:53.614Z,83.37
2018-09-26T01:48:56.622Z,83.59
2018-09-26T01:49:59.353Z,83.42
2018-09-26T01:51:02.092Z,83.47
2018-09-26T01:52:04.803Z,83.40
2018-09-26T01:53:07.658Z,82.92
2018-09-26T01:54:10.395Z,82.69
2018-09-26T01:55:13.521Z,82.71
2018-09-26T01:56:16.237Z,82.54
2018-09-26T01:57:20.637Z,82.51
2018-09-26T01:58:23.741Z,82.65
2018-09-26T01:59:26.454Z,82.49
2018-09-26T02:00:29.163Z,82.70
2018-09-26T02:01:32.182Z,82.31
2018-09-26T02:02:35.090Z,82.44
2018-09-26T02:03:37.794Z,82.48
2018-09-26T02:04:40.668Z,82.32
2018-09-26T02:05:43.616Z,82.30
2018-09-26T02:06:46.565Z,82.26
2018-09-26T02:07:50.046Z,82.43
2018-09-26T02:08:52.813Z,82.57
2018-09-26T02:09:55.548Z,82.53
2018-09-26T02:10:58.308Z,82.71
2018-09-26T02:12:01.942Z,82.30
2018-09-26T02:13:04.661Z,82.84
2018-09-26T02:14:07.718Z,82.79
2018-09-26T02:15:10.439Z,82.72
2018-09-26T02:16:13.287Z,82.87
2018-09-26T02:17:16.003Z,83.00
2018-09-26T02:18:18.715Z,83.04
2018-09-26T02:19:21.447Z,83.27
2018-09-26T02:20:24.518Z,83.10
2018-09-26T02:21:27.276Z,82.94
2018-09-26T02:22:29.997Z,82.55
2018-09-26T02:23:32.822Z,82.70
2018-09-26T02:24:35.601Z,83.15
2018-09-26T02:25:38.300Z,83.18
2018-09-26T02:26:41.324Z,83.04
2018-09-26T02:27:45.055Z,82.49
2018-09-26T02:28:47.764Z,83.25
2018-09-26T02:29:50.478Z,83.26
2018-09-26T02:30:53.217Z,83.53
2018-09-26T02:31:56.035Z,83.69
2018-09-26T02:32:59.093Z,83.82
2018-09-26T02:34:01.837Z,83.86
2018-09-26T02:35:04.595Z,83.87
2018-09-26T02:36:07.304Z,83.77
2018-09-26T02:37:10.474Z,83.74
2018-09-26T02:38:13.242Z,83.79
2018-09-26T02:39:16.248Z,83.65
2018-09-26T02:40:18.994Z,83.48
2018-09-26T02:41:21.707Z,83.42
2018-09-26T02:42:24.416Z,83.70
2018-09-26T02:43:27.140Z,83.96
2018-09-26T02:44:29.824Z,83.98
2018-09-26T02:45:32.846Z,84.21
2018-09-26T02:46:35.543Z,84.20
2018-09-26T02:47:38.240Z,84.41
2018-09-26T02:48:45.980Z,84.34
2018-09-26T02:49:48.744Z,84.02
2018-09-26T02:50:51.464Z,84.22
2018-09-26T02:51:54.454Z,84.34
2018-09-26T02:52:57.204Z,84.00
2018-09-26T02:53:59.920Z,84.32
2018-09-26T02:55:02.668Z,83.97
2018-09-26T02:56:05.369Z,83.90
2018-09-26T02:57:10.855Z,83.99
2018-09-26T02:58:14.432Z,84.03
2018-09-26T02:59:17.139Z,84.13
2018-09-26T03:00:20.493Z,84.03
2018-09-26T03:01:23.255Z,83.82
2018-09-26T03:02:26.091Z,83.92
2018-09-26T03:03:28.802Z,83.83
2018-09-26T03:04:31.993Z,84.02
2018-09-26T03:05:34.720Z,83.63
2018-09-26T03:06:37.452Z,83.81
2018-09-26T03:07:40.185Z,83.93
2018-09-26T03:08:42.962Z,84.13
2018-09-26T03:09:45.676Z,84.22
2018-09-26T03:10:48.701Z,84.14
2018-09-26T03:11:51.409Z,84.50
2018-09-26T03:12:54.188Z,84.58
2018-09-26T03:13:56.931Z,84.17
2018-09-26T03:14:59.702Z,84.22
2018-09-26T03:16:02.424Z,84.47
2018-09-26T03:17:05.413Z,84.23
2018-09-26T03:18:08.875Z,84.20
2018-09-26T03:19:11.616Z,84.00
2018-09-26T03:20:14.335Z,84.15
2018-09-26T03:21:17.076Z,84.56
2018-09-26T03:22:19.830Z,84.58
2018-09-26T03:23:22.866Z,84.66
2018-09-26T03:24:25.611Z,84.91
2018-09-26T03:25:29.262Z,84.29
2018-09-26T03:26:32.020Z,84.64
2018-09-26T03:27:34.736Z,84.03
2018-09-26T03:28:37.491Z,84.03
2018-09-26T03:29:40.489Z,83.95
2018-09-26T03:30:43.280Z,84.39
2018-09-26T03:31:46.014Z,84.44
2018-09-26T03:32:48.785Z,84.57
2018-09-26T03:33:51.605Z,84.66
2018-09-26T03:34:54.286Z,84.60
2018-09-26T03:35:57.310Z,84.63
2018-09-26T03:37:00.053Z,84.93
2018-09-26T03:38:02.770Z,84.24
2018-09-26T03:39:05.607Z,84.30
2018-09-26T03:40:08.368Z,84.47
2018-09-26T03:41:11.912Z,84.58
2018-09-26T03:42:14.934Z,84.41
2018-09-26T03:43:17.657Z,84.23
2018-09-26T03:44:20.381Z,84.53
2018-09-26T03:45:23.202Z,84.45
2018-09-26T03:46:25.991Z,84.28
2018-09-26T03:47:28.696Z,84.19
2018-09-26T03:48:31.888Z,84.07
2018-09-26T03:49:34.593Z,84.23
2018-09-26T03:50:37.334Z,84.18
2018-09-26T03:51:40.068Z,83.81
2018-09-26T03:52:42.837Z,83.89
2018-09-26T03:53:45.631Z,84.06
2018-09-26T03:54:48.645Z,84.01
2018-09-26T03:55:51.462Z,83.98
2018-09-26T03:56:54.218Z,84.45
2018-09-26T03:57:56.967Z,84.35
2018-09-26T03:58:59.676Z,84.29
2018-09-26T04:00:02.421Z,84.59
2018-09-26T04:01:05.434Z,84.53
2018-09-26T04:02:08.154Z,84.95
2018-09-26T04:03:10.882Z,85.03
2018-09-26T04:04:13.627Z,84.97
2018-09-26T04:05:16.343Z,84.68
2018-09-26T04:06:19.068Z,84.87
2018-09-26T04:07:22.162Z,84.84
2018-09-26T04:08:24.896Z,84.68
2018-09-26T04:09:27.610Z,84.65
2018-09-26T04:10:30.399Z,84.44
2018-09-26T04:11:33.108Z,84.15
2018-09-26T04:12:35.940Z,84.56
2018-09-26T04:13:39.317Z,84.51
2018-09-26T04:14:42.072Z,84.01
2018-09-26T04:15:59.039Z,84.69
2018-09-26T04:17:01.803Z,84.87
2018-09-26T04:18:04.529Z,84.75
2018-09-26T04:19:07.366Z,85.26
2018-09-26T04:20:10.430Z,84.87
2018-09-26T04:21:13.208Z,85.37
2018-09-26T04:22:15.961Z,85.13
2018-09-26T04:23:18.719Z,85.37
2018-09-26T04:24:21.435Z,85.43
2018-09-26T04:25:26.682Z,85.51
2018-09-26T04:26:29.900Z,86.09
2018-09-26T04:27:32.751Z,86.21
2018-09-26T04:28:35.546Z,85.80
2018-09-26T04:29:38.692Z,85.76
2018-09-26T04:30:41.949Z,85.05
2018-09-26T04:31:45.397Z,85.41
2018-09-26T04:32:49.895Z,85.98
2018-09-26T04:33:53.230Z,86.11
2018-09-26T04:34:57.680Z,86.07
2018-09-26T04:36:01.512Z,85.88
2018-09-26T04:37:04.823Z,85.75
2018-09-26T04:38:08.661Z,85.62
2018-09-26T04:39:13.864Z,85.42
2018-09-26T04:40:17.106Z,85.27
2018-09-26T04:41:20.999Z,85.31
2018-09-26T04:42:26.149Z,85.15
2018-09-26T04:43:30.378Z,85.20
2018-09-26T04:44:33.654Z,84.89
2018-09-26T04:45:37.621Z,85.13
2018-09-26T04:46:40.605Z,85.51
2018-09-26T04:47:43.853Z,85.33
2018-09-26T04:48:47.789Z,85.15
2018-09-26T04:49:51.539Z,85.96
2018-09-26T04:50:55.752Z,86.15
2018-09-26T04:52:00.240Z,86.57
2018-09-26T04:53:05.275Z,86.39
2018-09-26T04:54:10.842Z,86.51
2018-09-26T04:55:14.833Z,86.54
2018-09-26T04:56:19.991Z,86.60
2018-09-26T04:57:23.658Z,86.45
2018-09-26T04:58:30.568Z,86.29
2018-09-26T04:59:34.917Z,86.32
2018-09-26T05:00:38.614Z,85.95
2018-09-26T05:01:42.338Z,86.00
2018-09-26T05:02:47.329Z,85.75
2018-09-26T05:03:50.755Z,85.99
2018-09-26T05:04:55.725Z,85.90
2018-09-26T05:05:59.178Z,85.60
2018-09-26T05:07:02.504Z,85.63
2018-09-26T05:08:05.794Z,85.26
2018-09-26T05:09:09.358Z,85.53
2018-09-26T05:10:13.178Z,85.55
2018-09-26T05:11:16.556Z,85.45
2018-09-26T05:12:19.698Z,85.55
2018-09-26T05:13:23.198Z,85.40
2018-09-26T05:14:26.185Z,85.42
2018-09-26T05:15:29.474Z,85.19
2018-09-26T05:16:32.973Z,84.82
2018-09-26T05:17:35.947Z,84.91
2018-09-26T05:18:39.120Z,85.32
2018-09-26T05:19:41.895Z,85.16
2018-09-26T05:20:44.774Z,84.61
2018-09-26T05:21:47.522Z,84.97
2018-09-26T05:22:50.724Z,84.23
2018-09-26T05:23:53.475Z,84.48
2018-09-26T05:24:57.257Z,84.63
2018-09-26T05:26:00.051Z,84.43
2018-09-26T05:27:02.770Z,84.43
2018-09-26T05:28:05.699Z,84.78
2018-09-26T05:29:08.755Z,85.32
2018-09-26T05:30:11.534Z,85.37
2018-09-26T05:44:21.262Z,85.08
2018-09-26T05:45:23.995Z,84.87
2018-09-26T05:46:26.824Z,85.24
2018-09-26T05:47:30.364Z,85.22
2018-09-26T05:48:33.262Z,84.58
2018-09-26T05:49:36.456Z,84.84
2018-09-26T05:50:39.244Z,84.68
2018-09-26T05:51:42.060Z,84.80
2018-09-26T05:52:44.786Z,84.73
2018-09-26T05:53:47.528Z,84.43
2018-09-26T05:54:51.836Z,84.25
2018-09-26T05:55:55.025Z,83.85
2018-09-26T05:56:58.224Z,83.93
2018-09-26T05:58:04.245Z,84.15
2018-09-26T05:59:07.297Z,83.80
2018-09-26T06:00:10.403Z,83.92
2018-09-26T06:01:13.419Z,84.45
2018-09-26T06:02:17.758Z,84.49
2018-09-26T06:03:21.327Z,84.19
2018-09-26T06:04:24.925Z,84.04
2018-09-26T06:05:28.134Z,84.04
2018-09-26T06:06:31.567Z,84.63
2018-09-26T06:07:35.343Z,84.60
2018-09-26T06:08:40.019Z,84.85
2018-09-26T06:09:42.901Z,84.50
2018-09-26T06:10:45.717Z,84.62
2018-09-26T06:11:48.489Z,84.37
2018-09-26T06:12:51.415Z,84.39
2018-09-26T06:13:54.121Z,84.42
2018-09-26T06:14:57.549Z,83.74
2018-09-26T06:16:01.157Z,83.68
2018-09-26T06:17:04.509Z,83.80
2018-09-26T06:18:07.314Z,84.08
2018-09-26T06:19:10.718Z,84.38
2018-09-26T06:20:13.606Z,83.63
2018-09-26T06:21:16.784Z,83.44
2018-09-26T06:22:19.762Z,83.12
2018-09-26T06:23:23.249Z,83.15
2018-09-26T06:24:26.985Z,83.09
2018-09-26T06:25:30.545Z,83.01
2018-09-26T06:26:33.508Z,83.29
2018-09-26T06:27:38.249Z,83.20
2018-09-26T06:28:41.242Z,83.01
2018-09-26T06:29:44.041Z,82.74
2018-09-26T06:30:47.220Z,82.76
2018-09-26T06:31:49.963Z,82.33
2018-09-26T06:32:52.700Z,82.46
2018-09-26T06:33:55.864Z,82.71
2018-09-26T06:34:58.738Z,82.29
2018-09-26T06:36:01.487Z,82.32
2018-09-26T06:37:04.665Z,82.48
2018-09-26T06:38:08.175Z,82.39
2018-09-26T06:39:13.643Z,82.93
2018-09-26T06:40:16.965Z,82.31
2018-09-26T06:41:20.627Z,82.41
2018-09-26T06:42:23.377Z,81.69
2018-09-26T06:43:26.127Z,81.19
2018-09-26T06:44:29.574Z,80.82
2018-09-26T06:45:32.373Z,80.31
2018-09-26T06:46:36.349Z,80.16
2018-09-26T06:47:39.228Z,80.30
2018-09-26T06:48:42.203Z,79.83
2018-09-26T06:49:44.967Z,79.68
2018-09-26T06:50:47.697Z,78.94
2018-09-26T06:51:51.923Z,78.91
2018-09-26T06:52:55.603Z,78.49
2018-09-26T06:53:58.396Z,78.02
2018-09-26T06:55:01.142Z,77.74
2018-09-26T06:56:04.003Z,76.97
2018-09-26T06:57:06.777Z,76.82
2018-09-26T06:58:09.529Z,76.31
2018-09-26T06:59:12.742Z,76.15
2018-09-26T07:00:15.624Z,75.69
2018-09-26T07:01:18.344Z,74.86
2018-09-26T07:02:22.135Z,73.85
2018-09-26T07:03:24.906Z,72.83
2018-09-26T07:04:27.663Z,72.09
2018-09-26T07:05:32.481Z,71.67
2018-09-26T07:06:35.253Z,71.75
2018-09-26T07:07:38.031Z,71.27
2018-09-26T07:08:40.775Z,70.96
2018-09-26T07:09:43.569Z,71.05
2018-09-26T07:10:47.185Z,70.88
2018-09-26T07:11:50.387Z,70.50
2018-09-26T07:12:53.143Z,70.44
2018-09-26T07:13:55.834Z,69.48
2018-09-26T07:14:59.520Z,70.42
2018-09-26T07:16:03.169Z,69.86
2018-09-26T07:17:05.965Z,69.80
2018-09-26T07:18:08.942Z,69.62
2018-09-26T07:19:11.672Z,68.16
2018-09-26T07:20:14.449Z,66.98
2018-09-26T07:21:17.829Z,66.89
2018-09-26T07:22:20.596Z,66.30
2018-09-26T07:23:23.330Z,66.40
2018-09-26T07:24:27.322Z,65.85
2018-09-26T07:25:30.093Z,63.95
2018-09-26T07:26:33.658Z,64.22
2018-09-26T07:27:36.514Z,64.10
2018-09-26T07:28:39.290Z,64.10
2018-09-26T07:29:42.295Z,64.26
2018-09-26T07:30:45.356Z,63.87
2018-09-26T07:31:48.145Z,64.50
2018-09-26T07:32:50.946Z,65.03
2018-09-26T07:33:53.753Z,64.73
2018-09-26T07:34:56.527Z,64.30
2018-09-26T07:36:00.178Z,64.79
2018-09-26T07:37:03.237Z,64.75
2018-09-26T07:38:05.986Z,65.33
2018-09-26T07:39:09.416Z,64.92
2018-09-26T07:40:12.307Z,64.12
2018-09-26T07:41:15.332Z,64.58
2018-09-26T07:42:18.934Z,65.07
2018-09-26T07:43:22.350Z,65.21
2018-09-26T07:44:25.219Z,65.08
2018-09-26T07:45:29.069Z,64.62
2018-09-26T07:46:32.918Z,63.95
2018-09-26T07:47:35.753Z,63.02
2018-09-26T07:48:38.570Z,62.04
2018-09-26T07:49:42.501Z,61.40
2018-09-26T07:50:47.374Z,60.78
2018-09-26T07:51:52.558Z,61.71
2018-09-26T07:52:55.400Z,61.41
2018-09-26T07:53:58.158Z,61.15
2018-09-26T07:55:01.793Z,60.53
2018-09-26T07:56:05.216Z,60.56
2018-09-26T07:57:09.074Z,60.53
2018-09-26T07:58:11.842Z,60.29
2018-09-26T07:59:16.008Z,60.02
2018-09-26T08:00:18.892Z,59.71
2018-09-26T08:01:21.646Z,59.77
2018-09-26T08:02:24.897Z,59.28
2018-09-26T08:03:27.626Z,58.76
2018-09-26T08:04:34.788Z,58.67
2018-09-26T08:05:37.530Z,58.53
2018-09-26T08:06:40.281Z,57.49
2018-09-26T08:07:43.245Z,56.13
2018-09-26T08:08:46.643Z,55.24
2018-09-26T08:09:50.643Z,55.92
2018-09-26T08:10:53.417Z,56.80
2018-09-26T08:11:56.777Z,56.81
2018-09-26T08:13:00.054Z,56.67
2018-09-26T08:14:03.098Z,55.92
2018-09-26T08:15:06.437Z,56.08
2018-09-26T08:16:10.056Z,55.80
2018-09-26T08:17:13.854Z,56.25
2018-09-26T08:18:17.388Z,56.19
2018-09-26T08:19:23.527Z,56.48
2018-09-26T08:20:29.381Z,56.27
2018-09-26T08:21:32.641Z,56.05
2018-09-26T08:22:35.381Z,55.38
2018-09-26T08:23:39.073Z,55.04
2018-09-26T08:24:41.821Z,54.57
2018-09-26T08:25:44.962Z,54.26
2018-09-26T08:26:47.736Z,53.46
2018-09-26T08:27:51.139Z,53.47
2018-09-26T08:28:54.554Z,53.11
2018-09-26T08:29:58.611Z,52.16
2018-09-26T08:31:01.327Z,51.03
2018-09-26T08:32:04.119Z,51.52
2018-09-26T08:33:07.513Z,52.28
2018-09-26T08:34:13.340Z,51.11
2018-09-26T08:35:16.334Z,51.11
2018-09-26T08:36:21.167Z,50.81
2018-09-26T08:37:24.119Z,50.55
2018-09-26T08:38:28.221Z,50.54
2018-09-26T08:39:30.993Z,50.10
2018-09-26T08:40:34.252Z,49.88
2018-09-26T08:41:39.078Z,50.29
2018-09-26T08:42:41.945Z,50.30
2018-09-26T08:43:45.359Z,50.35
2018-09-26T08:44:48.157Z,50.84
2018-09-26T08:45:53.912Z,51.25
2018-09-26T08:46:57.025Z,51.39
2018-09-26T08:48:01.270Z,51.54
2018-09-26T08:49:04.749Z,52.60
2018-09-26T08:50:07.506Z,51.32
2018-09-26T08:51:10.254Z,51.76
2018-09-26T08:52:12.999Z,50.98
2018-09-26T08:53:16.383Z,50.14
2018-09-26T08:54:19.171Z,49.92
2018-09-26T08:55:21.950Z,48.84
2018-09-26T08:56:24.681Z,48.56
2018-09-26T08:57:27.470Z,49.39
2018-09-26T08:58:31.273Z,47.85
2018-09-26T08:59:35.283Z,47.30
2018-09-26T09:00:38.600Z,44.87
2018-09-26T09:01:48.424Z,44.52
2018-09-26T09:02:52.669Z,45.33
2018-09-26T09:03:55.598Z,44.68
2018-09-26T09:04:58.334Z,44.63
2018-09-26T09:06:01.566Z,43.53
2018-09-26T09:07:05.117Z,44.37
2018-09-26T09:08:07.833Z,44.38
2018-09-26T09:09:10.614Z,45.14
2018-09-26T09:10:13.343Z,46.09
2018-09-26T09:11:16.077Z,45.80
2018-09-26T09:12:19.239Z,45.59
2018-09-26T09:13:23.562Z,45.49
2018-09-26T09:14:27.298Z,45.51
2018-09-26T09:15:31.647Z,44.93
2018-09-26T09:16:35.673Z,43.46
2018-09-26T09:17:38.459Z,42.63
2018-09-26T09:18:41.527Z,42.32
2018-09-26T09:19:44.310Z,40.99
2018-09-26T09:20:47.061Z,42.82
2018-09-26T09:21:49.816Z,43.99
2018-09-26T09:22:53.435Z,44.25
2018-09-26T09:23:56.296Z,44.17
2018-09-26T09:25:00.409Z,43.49
2018-09-26T09:26:03.379Z,44.13
2018-09-26T09:27:06.164Z,43.41
2018-09-26T09:28:09.569Z,43.88
2018-09-26T09:29:16.619Z,44.01
2018-09-26T09:30:19.355Z,45.69
2018-09-26T09:31:22.614Z,44.95
2018-09-26T09:32:25.600Z,44.40
2018-09-26T09:33:32.524Z,45.33
2018-09-26T09:34:35.302Z,45.28
2018-09-26T09:35:38.054Z,44.07
2018-09-26T09:36:43.654Z,45.28
2018-09-26T09:37:47.426Z,44.93
2018-09-26T09:38:50.271Z,45.64
2018-09-26T09:39:53.669Z,45.63
2018-09-26T09:40:57.788Z,46.14
2018-09-26T09:42:00.550Z,45.68
2018-09-26T09:43:03.302Z,45.22
2018-09-26T09:44:06.441Z,45.09
2018-09-26T09:45:09.538Z,44.24
2018-09-26T09:46:13.027Z,43.42
2018-09-26T09:47:15.777Z,44.00
2018-09-26T09:48:18.535Z,43.39
2018-09-26T09:49:21.343Z,43.44
2018-09-26T09:50:24.846Z,42.93
2018-09-26T09:51:27.755Z,42.26
2018-09-26T09:52:30.537Z,41.77
2018-09-26T09:53:33.384Z,40.10
2018-09-26T09:54:36.116Z,41.59
2018-09-26T09:55:39.452Z,40.45
2018-09-26T09:56:43.550Z,40.07
2018-09-26T09:57:46.341Z,41.09
2018-09-26T09:58:49.165Z,41.20
2018-09-26T09:59:53.659Z,41.27
2018-09-26T10:01:02.087Z,40.79
2018-09-26T10:02:05.806Z,41.60
2018-09-26T10:03:09.932Z,41.89
2018-09-26T10:04:14.294Z,41.18
2018-09-26T10:05:17.803Z,41.89
2018-09-26T10:06:21.136Z,41.37
2018-09-26T10:07:24.043Z,41.74
2018-09-26T10:08:28.010Z,41.74
2018-09-26T10:09:31.308Z,42.48
2018-09-26T10:10:34.280Z,42.48
2018-09-26T10:11:39.600Z,41.48
2018-09-26T10:12:42.850Z,42.39
2018-09-26T10:13:46.538Z,42.34
2018-09-26T10:14:49.408Z,41.46
2018-09-26T10:15:53.023Z,41.92
2018-09-26T10:16:55.909Z,42.40
2018-09-26T10:17:59.281Z,41.96
2018-09-26T10:19:02.037Z,41.08
2018-09-26T10:20:04.967Z,41.74
2018-09-26T10:21:08.090Z,42.32
2018-09-26T10:22:11.513Z,41.95
2018-09-26T10:23:14.448Z,40.37
2018-09-26T10:24:17.338Z,40.97
2018-09-26T10:25:20.405Z,41.64
2018-09-26T10:26:23.173Z,41.84
2018-09-26T10:27:26.481Z,41.85
2018-09-26T10:28:30.758Z,41.93
2018-09-26T10:29:33.520Z,42.32
2018-09-26T10:30:40.515Z,41.85
2018-09-26T10:43:31.638Z,40.72
2018-09-26T10:44:35.649Z,41.49
2018-09-26T10:45:38.399Z,40.68
2018-09-26T10:46:41.264Z,40.91
2018-09-26T10:47:45.712Z,41.39
2018-09-26T10:48:49.921Z,40.12
2018-09-26T10:49:56.558Z,40.35
2018-09-26T10:50:59.564Z,40.41
2018-09-26T10:52:03.146Z,40.71
2018-09-26T10:53:06.938Z,40.84
2018-09-26T10:54:10.581Z,40.03
2018-09-26T10:55:13.972Z,39.72
2018-09-26T10:56:16.777Z,40.88
2018-09-26T10:57:19.486Z,41.04
2018-09-26T10:58:22.240Z,39.96
2018-09-26T10:59:24.963Z,40.29
2018-09-26T11:00:27.742Z,39.42
2018-09-26T11:01:33.530Z,38.37
2018-09-26T11:02:37.063Z,39.56
2018-09-26T11:03:39.778Z,39.46
2018-09-26T11:04:49.394Z,39.29
2018-09-26T11:05:52.288Z,38.25
2018-09-26T11:06:55.631Z,38.27
2018-09-26T11:07:59.522Z,38.71
2018-09-26T11:09:02.499Z,37.51
2018-09-26T11:10:06.913Z,36.31
2018-09-26T11:11:09.670Z,35.72
2018-09-26T11:12:12.510Z,36.45
2018-09-26T11:13:15.354Z,36.48
2018-09-26T11:14:21.409Z,37.91
2018-09-26T11:15:25.224Z,37.02
2018-09-26T11:16:28.074Z,37.24
2018-09-26T11:17:31.927Z,36.67
2018-09-26T11:18:37.211Z,35.93
2018-09-26T11:19:40.005Z,36.14
2018-09-26T11:20:43.129Z,35.78
2018-09-26T11:21:45.957Z,37.20
2018-09-26T11:22:48.702Z,36.43
2018-09-26T11:23:51.452Z,36.65
2018-09-26T11:24:54.229Z,37.31
2018-09-26T11:25:56.937Z,37.71
2018-09-26T11:27:00.899Z,37.36
2018-09-26T11:28:03.613Z,38.70
2018-09-26T11:29:06.372Z,39.01
2018-09-26T11:30:09.108Z,38.78
2018-09-26T11:31:14.559Z,38.96
2018-09-26T11:32:17.437Z,39.06
2018-09-26T11:33:21.518Z,38.94
2018-09-26T11:34:24.350Z,38.85
2018-09-26T11:35:27.842Z,37.66
2018-09-26T11:36:30.689Z,37.95
2018-09-26T11:37:34.678Z,38.15
2018-09-26T11:38:39.369Z,38.73
2018-09-26T11:39:42.789Z,38.66
2018-09-26T11:40:46.038Z,37.97
2018-09-26T11:41:48.793Z,38.27
2018-09-26T11:42:51.579Z,38.38
2018-09-26T11:43:54.362Z,38.24
2018-09-26T11:44:58.618Z,37.32
2018-09-26T11:46:02.533Z,37.70
2018-09-26T11:47:05.317Z,36.88
2018-09-26T11:48:08.166Z,37.38
2018-09-26T11:49:10.991Z,37.60
2018-09-26T11:50:13.813Z,37.98
2018-09-26T11:51:16.747Z,36.86
2018-09-26T11:52:20.110Z,36.79
2018-09-26T11:53:22.812Z,37.11
2018-09-26T11:54:25.655Z,37.04
2018-09-26T11:55:28.679Z,36.56
2018-09-26T11:56:31.908Z,35.97
2018-09-26T11:57:35.268Z,35.35
2018-09-26T11:58:39.181Z,35.46
2018-09-26T11:59:41.948Z,35.51
2018-09-26T12:00:45.825Z,35.04
2018-09-26T12:01:48.811Z,35.47
2018-09-26T12:02:52.486Z,36.04
2018-09-26T12:03:56.591Z,36.58
2018-09-26T12:05:00.053Z,35.97
2018-09-26T12:06:03.675Z,36.35
2018-09-26T12:07:06.603Z,35.40
2018-09-26T12:08:11.544Z,35.18
2018-09-26T12:09:14.451Z,34.80
2018-09-26T12:10:17.198Z,35.11
2018-09-26T12:11:22.604Z,34.50
2018-09-26T12:12:27.887Z,34.56
2018-09-26T12:13:31.080Z,34.97
2018-09-26T12:14:34.419Z,36.02
2018-09-26T12:15:38.702Z,36.48
2018-09-26T12:16:42.410Z,35.52
2018-09-26T12:17:45.174Z,36.10
2018-09-26T12:18:48.289Z,36.03
2018-09-26T12:19:51.962Z,36.70
2018-09-26T12:20:54.779Z,35.65
2018-09-26T12:21:57.600Z,36.44
2018-09-26T12:23:00.877Z,36.20
2018-09-26T12:24:03.665Z,35.97
2018-09-26T12:25:06.588Z,36.22
2018-09-26T12:26:11.252Z,35.97
2018-09-26T12:27:13.995Z,35.49
2018-09-26T12:28:17.697Z,34.94
2018-09-26T12:29:22.532Z,34.00
2018-09-26T12:30:25.288Z,34.69
2018-09-26T12:31:34.467Z,35.73
2018-09-26T12:32:37.969Z,34.81
2018-09-26T12:33:40.710Z,34.53
2018-09-26T12:34:45.477Z,34.35
2018-09-26T12:35:50.242Z,34.25
2018-09-26T12:36:54.898Z,34.38
2018-09-26T12:37:57.713Z,34.20
2018-09-26T12:39:01.974Z,33.37
2018-09-26T12:40:05.866Z,33.91
2018-09-26T12:41:10.946Z,33.47
2018-09-26T12:42:14.103Z,32.98
2018-09-26T12:43:17.296Z,32.46
2018-09-26T12:44:21.418Z,32.70
2018-09-26T12:45:25.386Z,32.25
2018-09-26T12:46:31.176Z,32.13
2018-09-26T12:47:35.551Z,32.60
2018-09-26T12:48:39.676Z,31.80
2018-09-26T12:49:43.198Z,32.91
2018-09-26T12:50:46.676Z,33.00
2018-09-26T12:51:49.448Z,31.77
2018-09-26T12:52:52.947Z,32.97
2018-09-26T12:53:56.394Z,32.60
2018-09-26T12:54:59.465Z,32.73
2018-09-26T12:56:02.215Z,31.89
2018-09-26T12:57:06.541Z,30.96
2018-09-26T12:58:10.179Z,30.88
2018-09-26T12:59:12.975Z,31.70
2018-09-26T13:00:16.464Z,32.01
2018-09-26T13:01:20.439Z,32.22
2018-09-26T13:02:24.088Z,31.06
2018-09-26T13:03:26.765Z,31.14
2018-09-26T13:04:29.527Z,31.62
2018-09-26T13:05:32.498Z,32.36
2018-09-26T13:06:35.217Z,33.17
2018-09-26T13:07:38.382Z,33.03
2018-09-26T13:08:41.099Z,33.06
2018-09-26T13:09:43.827Z,32.82
2018-09-26T13:10:47.343Z,33.09
2018-09-26T13:11:50.093Z,33.20
2018-09-26T13:12:53.299Z,33.47
2018-09-26T13:13:56.484Z,33.17
2018-09-26T13:14:59.263Z,34.38
2018-09-26T13:16:02.333Z,34.57
2018-09-26T13:17:05.789Z,34.27
2018-09-26T13:18:08.554Z,33.51
2018-09-26T13:19:11.289Z,34.75
2018-09-26T13:20:14.415Z,34.62
2018-09-26T13:21:17.147Z,35.53
2018-09-26T13:22:21.440Z,34.73
2018-09-26T13:23:25.760Z,33.56
2018-09-26T13:24:30.780Z,33.20
2018-09-26T13:25:35.842Z,33.47
2018-09-26T13:26:38.817Z,33.91
2018-09-26T13:27:42.740Z,33.24
2018-09-26T13:28:45.470Z,33.53
2018-09-26T13:29:48.184Z,32.40
2018-09-26T13:30:51.404Z,32.00
2018-09-26T13:31:54.368Z,31.42
2018-09-26T13:33:00.750Z,30.83
2018-09-26T13:34:03.542Z,31.16
2018-09-26T13:35:07.765Z,30.31
2018-09-26T13:36:10.647Z,30.42
2018-09-26T13:37:14.198Z,30.72
2018-09-26T13:38:18.600Z,29.81
2018-09-26T13:39:24.697Z,29.49
2018-09-26T13:40:27.960Z,29.72
2018-09-26T13:41:31.934Z,29.47
2018-09-26T13:42:34.730Z,29.28
2018-09-26T13:43:38.717Z,29.38
2018-09-26T13:44:43.063Z,29.59
2018-09-26T13:45:46.130Z,28.90
2018-09-26T13:46:50.796Z,28.52
2018-09-26T13:47:53.640Z,28.00
2018-09-26T13:48:56.437Z,28.58
2018-09-26T13:50:00.706Z,30.08
2018-09-26T13:51:03.481Z,29.14
2018-09-26T13:52:06.236Z,28.57
2018-09-26T13:53:10.622Z,29.09
2018-09-26T13:54:14.372Z,28.56
2018-09-26T13:55:17.206Z,28.25
2018-09-26T13:56:21.754Z,28.13
2018-09-26T13:57:25.117Z,27.73
2018-09-26T13:58:29.441Z,27.85
2018-09-26T13:59:35.450Z,28.68
2018-09-26T14:00:40.081Z,28.64